Decoded Metar for LFRO (LANNION in FRANCE) (IATA:LAI) | Meteo·Mobile Aviation Weather
aviador You're here:

LFRO Decoded Metar

LANNION in FRANCE
Report Time2019-07-21 18:00:00
UTC Time2019-07-21 18:20:39
Flight Rules vfr VFR
Wind330° at 05 kt
W.Decomp.*RWY 29: 3.7 kt HW 3.3 kt RCW
Visibility9999 m
Phenomena:N/A
Clouds:N/A
Expected CloudBase > 2,000 ft AGL from Temp-Dew spread
CeilingNone
Temp20°C (ISA +6)
Dew Point15°C (73% RH)
AAT19.8°C
QNH1023 hPa
Density Alt837 ft
Elevation292 ft
Report Wrong Elevation
Raw Report
METAR LFRO 211800Z AUTO 33005KT 300V020 CAVOK 20/15 Q1023=

Extra information for LFRO:More info

Metar Taf Metar & Taf Last 4 Metars F.Rules Stats Wind Profile Meteogram Temp Stats Airport Information Weather charts Add Link Nearby VenuesMetar ALERT Operation Metar Decoded Social comments